PWSweather.com
Personal Weather Stations
Station Observations
PALMY
Palmerston NorthNZ 4410

Palmerston NorthNZ 4410

Lat: -40.349104, Lon: 175.615094

Elevation: 75.4

Station Type: WeatherDuino Pro2

http://palmyweather.co.nz

High Low Average
Temperature 65.8°F18.8°F 49.4°F9.7°F 56.3°F13.5°F
Dew Point 51.7°F10.9°F 45.2°F7.3°F 48.1°F8.9°F
Winds 11.2 mph -18.0 mph - 1.3 mph 2.1 mph 5.2 mph 8.4 mph
Wind Gusts 37.2 mph59.9 mph 2.7 mph4.3 mph 13.2 mph21.2 mph
Humidity 91% 53% 75%
Pressure 30.36 in1028.10 in 30.27 in1025.10 in -
Precipitation 0.00 in0.00 in - -
Hour Temp Dew Point Humidity Winds Wind Gusts Pressure Precip Precip Rate Daily Precip Total
12:00 AM 50.9°F10.5°C 47.2°F8.4°C 87% 2.7 mph N4.3 kmh N 5.4 mph8.7 kmh 30.36 in1028.1 mb 0.00 in0.0 mm 0.00 in0.0 mm 0.00 in0.0 mm
12:05 AM 51.0°F10.6°C 47.3°F8.5°C 87% 2.2 mph N3.5 kmh N 5.4 mph8.7 kmh 30.35 in1027.8 mb 0.00 in0.0 mm 0.00 in0.0 mm 0.00 in0.0 mm
12:10 AM 51.2°F10.7°C 47.5°F8.6°C 87% 2.2 mph N3.5 kmh N 4.9 mph7.9 kmh 30.36 in1028.1 mb 0.00 in0.0 mm 0.00 in0.0 mm 0.00 in0.0 mm
12:15 AM 51.4°F10.8°C 47.7°F8.7°C 87% 2.2 mph NNW3.5 kmh NNW 4.9 mph7.9 kmh 30.35 in1027.8 mb 0.00 in0.0 mm 0.00 in0.0 mm 0.00 in0.0 mm
12:20 AM 51.4°F10.8°C 47.7°F8.7°C 87% 2.7 mph NNW4.3 kmh NNW 5.8 mph9.3 kmh 30.35 in1027.8 mb 0.00 in0.0 mm 0.00 in0.0 mm 0.00 in0.0 mm
12:25 AM 51.4°F10.8°C 47.7°F8.7°C 87% 2.2 mph NNW3.5 kmh NNW 5.8 mph9.3 kmh 30.35 in1027.8 mb 0.00 in0.0 mm 0.00 in0.0 mm 0.00 in0.0 mm
12:30 AM 51.2°F10.7°C 47.5°F8.6°C 87% 2.2 mph NNW3.5 kmh NNW 5.4 mph8.7 kmh 30.35 in1027.8 mb 0.00 in0.0 mm 0.00 in0.0 mm 0.00 in0.0 mm
12:35 AM 51.2°F10.7°C 47.5°F8.6°C 87% 2.7 mph NW4.3 kmh NW 9.4 mph15.1 kmh 30.35 in1027.8 mb 0.00 in0.0 mm 0.00 in0.0 mm 0.00 in0.0 mm
12:40 AM 51.2°F10.7°C 47.5°F8.6°C 87% 2.2 mph NNW3.5 kmh NNW 9.9 mph15.9 kmh 30.34 in1027.4 mb 0.00 in0.0 mm 0.00 in0.0 mm 0.00 in0.0 mm
12:45 AM 51.2°F10.7°C 47.5°F8.6°C 87% 2.7 mph NNW4.3 kmh NNW 9.9 mph15.9 kmh 30.34 in1027.4 mb 0.00 in0.0 mm 0.00 in0.0 mm 0.00 in0.0 mm
12:50 AM 51.0°F10.6°C 47.0°F8.3°C 86% 2.7 mph NW4.3 kmh NW 7.6 mph12.2 kmh 30.34 in1027.4 mb 0.00 in0.0 mm 0.00 in0.0 mm 0.00 in0.0 mm
12:55 AM 51.0°F10.6°C 47.0°F8.3°C 86% 3.1 mph NW5.0 kmh NW 7.6 mph12.2 kmh 30.34 in1027.4 mb 0.00 in0.0 mm 0.00 in0.0 mm 0.00 in0.0 mm
01:00 AM 51.0°F10.6°C 47.0°F8.3°C 86% 3.1 mph NNW5.0 kmh NNW 5.8 mph9.3 kmh 30.34 in1027.4 mb 0.00 in0.0 mm 0.00 in0.0 mm 0.00 in0.0 mm
01:05 AM 51.0°F10.6°C 47.0°F8.3°C 86% 3.1 mph NNW5.0 kmh NNW 11.6 mph18.7 kmh 30.34 in1027.4 mb 0.00 in0.0 mm 0.00 in0.0 mm 0.00 in0.0 mm
01:10 AM 51.0°F10.6°C 46.7°F8.2°C 85% 3.1 mph NW5.0 kmh NW 11.6 mph18.7 kmh 30.34 in1027.4 mb 0.00 in0.0 mm 0.00 in0.0 mm 0.00 in0.0 mm
01:15 AM 51.0°F10.6°C 46.7°F8.2°C 85% 2.7 mph NW4.3 kmh NW 6.3 mph10.1 kmh 30.34 in1027.4 mb 0.00 in0.0 mm 0.00 in0.0 mm 0.00 in0.0 mm
01:20 AM 51.0°F10.6°C 46.7°F8.2°C 85% 2.7 mph NW4.3 kmh NW 5.4 mph8.7 kmh 30.34 in1027.4 mb 0.00 in0.0 mm 0.00 in0.0 mm 0.00 in0.0 mm
01:25 AM 50.9°F10.5°C 46.6°F8.1°C 85% 2.7 mph NW4.3 kmh NW 5.8 mph9.3 kmh 30.33 in1027.1 mb 0.00 in0.0 mm 0.00 in0.0 mm 0.00 in0.0 mm
01:30 AM 50.7°F10.4°C 46.4°F8.0°C 85% 2.7 mph NW4.3 kmh NW 6.3 mph10.1 kmh 30.34 in1027.4 mb 0.00 in0.0 mm 0.00 in0.0 mm 0.00 in0.0 mm
01:35 AM 50.5°F10.3°C 46.2°F7.9°C 85% 2.2 mph NW3.5 kmh NW 6.3 mph10.1 kmh 30.34 in1027.4 mb 0.00 in0.0 mm 0.00 in0.0 mm 0.00 in0.0 mm
01:40 AM 50.3°F10.2°C 46.0°F7.8°C 85% 2.7 mph NW4.3 kmh NW 5.4 mph8.7 kmh 30.33 in1027.1 mb 0.00 in0.0 mm 0.00 in0.0 mm 0.00 in0.0 mm
01:45 AM 50.1°F10.1°C 45.8°F7.7°C 85% 2.7 mph NW4.3 kmh NW 5.4 mph8.7 kmh 30.33 in1027.1 mb 0.00 in0.0 mm 0.00 in0.0 mm 0.00 in0.0 mm
01:50 AM 50.0°F10.0°C 46.0°F7.8°C 86% 2.2 mph NW3.5 kmh NW 4.9 mph7.9 kmh 30.33 in1027.1 mb 0.00 in0.0 mm 0.00 in0.0 mm 0.00 in0.0 mm
01:55 AM 49.8°F9.9°C 45.8°F7.7°C 86% 1.3 mph NW2.1 kmh NW 3.6 mph5.8 kmh 30.33 in1027.1 mb 0.00 in0.0 mm 0.00 in0.0 mm 0.00 in0.0 mm
02:00 AM 49.4°F9.7°C 45.4°F7.4°C 86% 1.3 mph WNW2.1 kmh WNW 3.6 mph5.8 kmh 30.33 in1027.1 mb 0.00 in0.0 mm 0.00 in0.0 mm 0.00 in0.0 mm
02:05 AM 49.6°F9.8°C 45.9°F7.7°C 87% 1.8 mph NW2.9 kmh NW 4.0 mph6.4 kmh 30.33 in1027.1 mb 0.00 in0.0 mm 0.00 in0.0 mm 0.00 in0.0 mm
02:10 AM 49.6°F9.8°C 45.9°F7.7°C 87% 2.2 mph WNW3.5 kmh WNW 4.9 mph7.9 kmh 30.33 in1027.1 mb 0.00 in0.0 mm 0.00 in0.0 mm 0.00 in0.0 mm
02:15 AM 49.8°F9.9°C 46.1°F7.8°C 87% 2.2 mph WNW3.5 kmh WNW 4.9 mph7.9 kmh 30.33 in1027.1 mb 0.00 in0.0 mm 0.00 in0.0 mm 0.00 in0.0 mm
02:20 AM 49.8°F9.9°C 46.1°F7.8°C 87% 2.7 mph WNW4.3 kmh WNW 8.1 mph13.0 kmh 30.33 in1027.1 mb 0.00 in0.0 mm 0.00 in0.0 mm 0.00 in0.0 mm
02:25 AM 49.8°F9.9°C 46.1°F7.8°C 87% 2.7 mph WNW4.3 kmh WNW 8.1 mph13.0 kmh 30.32 in1026.8 mb 0.00 in0.0 mm 0.00 in0.0 mm 0.00 in0.0 mm
02:30 AM 50.1°F10.1°C 45.5°F7.5°C 84% 1.8 mph WNW2.9 kmh WNW 4.9 mph7.9 kmh 30.32 in1026.8 mb 0.00 in0.0 mm 0.00 in0.0 mm 0.00 in0.0 mm
02:35 AM 50.3°F10.2°C 45.7°F7.6°C 84% 1.3 mph NW2.1 kmh NW 3.1 mph5.0 kmh 30.32 in1026.8 mb 0.00 in0.0 mm 0.00 in0.0 mm 0.00 in0.0 mm
02:40 AM 50.1°F10.1°C 45.5°F7.5°C 84% 1.8 mph NNW2.9 kmh NNW 3.1 mph5.0 kmh 30.32 in1026.8 mb 0.00 in0.0 mm 0.00 in0.0 mm 0.00 in0.0 mm
02:45 AM 50.1°F10.1°C 45.2°F7.3°C 83% 1.8 mph NW2.9 kmh NW 4.0 mph6.4 kmh 30.32 in1026.8 mb 0.00 in0.0 mm 0.00 in0.0 mm 0.00 in0.0 mm
02:50 AM 50.1°F10.1°C 45.2°F7.3°C 83% 2.2 mph WNW3.5 kmh WNW 5.4 mph8.7 kmh 30.32 in1026.8 mb 0.00 in0.0 mm 0.00 in0.0 mm 0.00 in0.0 mm
02:55 AM 50.5°F10.3°C 45.6°F7.6°C 83% 2.7 mph WNW4.3 kmh WNW 10.3 mph16.6 kmh 30.32 in1026.8 mb 0.00 in0.0 mm 0.00 in0.0 mm 0.00 in0.0 mm
03:00 AM 50.7°F10.4°C 45.8°F7.7°C 83% 3.1 mph WNW5.0 kmh WNW 10.3 mph16.6 kmh 30.32 in1026.8 mb 0.00 in0.0 mm 0.00 in0.0 mm 0.00 in0.0 mm
03:05 AM 50.7°F10.4°C 45.4°F7.4°C 82% 3.1 mph WNW5.0 kmh WNW 5.8 mph9.3 kmh 30.32 in1026.8 mb 0.00 in0.0 mm 0.00 in0.0 mm 0.00 in0.0 mm
03:10 AM 50.5°F10.3°C 45.2°F7.3°C 82% 3.6 mph WNW5.8 kmh WNW 7.2 mph11.6 kmh 30.32 in1026.8 mb 0.00 in0.0 mm 0.00 in0.0 mm 0.00 in0.0 mm
03:15 AM 50.5°F10.3°C 45.2°F7.3°C 82% 3.1 mph W5.0 kmh W 7.2 mph11.6 kmh 30.32 in1026.8 mb 0.00 in0.0 mm 0.00 in0.0 mm 0.00 in0.0 mm
03:20 AM 50.5°F10.3°C 45.6°F7.6°C 83% 2.7 mph W4.3 kmh W 6.7 mph10.8 kmh 30.32 in1026.8 mb 0.00 in0.0 mm 0.00 in0.0 mm 0.00 in0.0 mm
03:25 AM 50.7°F10.4°C 45.8°F7.7°C 83% 2.7 mph W4.3 kmh W 6.7 mph10.8 kmh 30.32 in1026.8 mb 0.00 in0.0 mm 0.00 in0.0 mm 0.00 in0.0 mm
03:30 AM 50.7°F10.4°C 45.8°F7.7°C 83% 2.7 mph W4.3 kmh W 6.3 mph10.1 kmh 30.32 in1026.8 mb 0.00 in0.0 mm 0.00 in0.0 mm 0.00 in0.0 mm
03:35 AM 50.7°F10.4°C 45.8°F7.7°C 83% 3.1 mph WNW5.0 kmh WNW 6.7 mph10.8 kmh 30.32 in1026.8 mb 0.00 in0.0 mm 0.00 in0.0 mm 0.00 in0.0 mm
03:40 AM 50.5°F10.3°C 45.6°F7.6°C 83% 3.1 mph WNW5.0 kmh WNW 6.7 mph10.8 kmh 30.32 in1026.8 mb 0.00 in0.0 mm 0.00 in0.0 mm 0.00 in0.0 mm
03:45 AM 50.5°F10.3°C 45.6°F7.6°C 83% 3.6 mph WNW5.8 kmh WNW 6.7 mph10.8 kmh 30.32 in1026.8 mb 0.00 in0.0 mm 0.00 in0.0 mm 0.00 in0.0 mm
03:50 AM 50.7°F10.4°C 45.4°F7.4°C 82% 3.6 mph NW5.8 kmh NW 7.6 mph12.2 kmh 30.32 in1026.8 mb 0.00 in0.0 mm 0.00 in0.0 mm 0.00 in0.0 mm
03:55 AM 50.7°F10.4°C 45.4°F7.4°C 82% 3.1 mph NW5.0 kmh NW 7.6 mph12.2 kmh 30.32 in1026.8 mb 0.00 in0.0 mm 0.00 in0.0 mm 0.00 in0.0 mm
04:00 AM 50.7°F10.4°C 45.4°F7.4°C 82% 3.1 mph NW5.0 kmh NW 7.6 mph12.2 kmh 30.32 in1026.8 mb 0.00 in0.0 mm 0.00 in0.0 mm 0.00 in0.0 mm
04:05 AM 50.9°F10.5°C 45.6°F7.6°C 82% 2.7 mph NW4.3 kmh NW 5.4 mph8.7 kmh 30.32 in1026.8 mb 0.00 in0.0 mm 0.00 in0.0 mm 0.00 in0.0 mm
04:10 AM 50.9°F10.5°C 45.6°F7.6°C 82% 3.1 mph NW5.0 kmh NW 6.3 mph10.1 kmh 30.32 in1026.8 mb 0.00 in0.0 mm 0.00 in0.0 mm 0.00 in0.0 mm
04:15 AM 50.9°F10.5°C 45.6°F7.6°C 82% 2.7 mph NW4.3 kmh NW 6.3 mph10.1 kmh 30.31 in1026.4 mb 0.00 in0.0 mm 0.00 in0.0 mm 0.00 in0.0 mm
04:20 AM 50.9°F10.5°C 45.6°F7.6°C 82% 2.7 mph NW4.3 kmh NW 5.8 mph9.3 kmh 30.31 in1026.4 mb 0.00 in0.0 mm 0.00 in0.0 mm 0.00 in0.0 mm
04:25 AM 50.9°F10.5°C 45.6°F7.6°C 82% 2.7 mph NW4.3 kmh NW 6.3 mph10.1 kmh 30.31 in1026.4 mb 0.00 in0.0 mm 0.00 in0.0 mm 0.00 in0.0 mm
04:30 AM 50.9°F10.5°C 45.6°F7.6°C 82% 2.7 mph NW4.3 kmh NW 12.1 mph19.5 kmh 30.32 in1026.8 mb 0.00 in0.0 mm 0.00 in0.0 mm 0.00 in0.0 mm
04:35 AM 50.9°F10.5°C 45.6°F7.6°C 82% 2.7 mph NNW4.3 kmh NNW 12.1 mph19.5 kmh 30.31 in1026.4 mb 0.00 in0.0 mm 0.00 in0.0 mm 0.00 in0.0 mm
04:40 AM 50.9°F10.5°C 45.6°F7.6°C 82% 2.2 mph N3.5 kmh N 4.0 mph6.4 kmh 30.31 in1026.4 mb 0.00 in0.0 mm 0.00 in0.0 mm 0.00 in0.0 mm
04:45 AM 50.7°F10.4°C 45.4°F7.4°C 82% 2.2 mph N3.5 kmh N 4.0 mph6.4 kmh 30.32 in1026.8 mb 0.00 in0.0 mm 0.00 in0.0 mm 0.00 in0.0 mm
04:50 AM 50.7°F10.4°C 45.4°F7.4°C 82% 2.2 mph N3.5 kmh N 4.5 mph7.2 kmh 30.31 in1026.4 mb 0.00 in0.0 mm 0.00 in0.0 mm 0.00 in0.0 mm
04:55 AM 50.5°F10.3°C 45.2°F7.3°C 82% 2.2 mph N3.5 kmh N 4.5 mph7.2 kmh 30.32 in1026.8 mb 0.00 in0.0 mm 0.00 in0.0 mm 0.00 in0.0 mm
05:00 AM 50.5°F10.3°C 45.2°F7.3°C 82% 2.2 mph NNW3.5 kmh NNW 4.9 mph7.9 kmh 30.32 in1026.8 mb 0.00 in0.0 mm 0.00 in0.0 mm 0.00 in0.0 mm
05:05 AM 50.5°F10.3°C 45.2°F7.3°C 82% 2.7 mph NW4.3 kmh NW 6.3 mph10.1 kmh 30.32 in1026.8 mb 0.00 in0.0 mm 0.00 in0.0 mm 0.00 in0.0 mm
05:10 AM 50.5°F10.3°C 45.6°F7.6°C 83% 2.7 mph NW4.3 kmh NW 6.3 mph10.1 kmh 30.32 in1026.8 mb 0.00 in0.0 mm 0.00 in0.0 mm 0.00 in0.0 mm
05:15 AM 50.5°F10.3°C 45.6°F7.6°C 83% 2.7 mph NNW4.3 kmh NNW 6.3 mph10.1 kmh 30.32 in1026.8 mb 0.00 in0.0 mm 0.00 in0.0 mm 0.00 in0.0 mm
05:20 AM 50.5°F10.3°C 45.6°F7.6°C 83% 2.2 mph NW3.5 kmh NW 4.5 mph7.2 kmh 30.32 in1026.8 mb 0.00 in0.0 mm 0.00 in0.0 mm 0.00 in0.0 mm
05:25 AM 50.5°F10.3°C 45.6°F7.6°C 83% 2.2 mph NW3.5 kmh NW 4.5 mph7.2 kmh 30.32 in1026.8 mb 0.00 in0.0 mm 0.00 in0.0 mm 0.00 in0.0 mm
05:30 AM 50.7°F10.4°C 45.8°F7.7°C 83% 2.2 mph NW3.5 kmh NW 4.9 mph7.9 kmh 30.32 in1026.8 mb 0.00 in0.0 mm 0.00 in0.0 mm 0.00 in0.0 mm
05:35 AM 50.5°F10.3°C 45.6°F7.6°C 83% 2.7 mph NNW4.3 kmh NNW 4.9 mph7.9 kmh 30.32 in1026.8 mb 0.00 in0.0 mm 0.00 in0.0 mm 0.00 in0.0 mm
05:40 AM 50.3°F10.2°C 45.4°F7.4°C 83% 3.1 mph NNW5.0 kmh NNW 7.6 mph12.2 kmh 30.32 in1026.8 mb 0.00 in0.0 mm 0.00 in0.0 mm 0.00 in0.0 mm
05:45 AM 50.5°F10.3°C 45.6°F7.6°C 83% 3.6 mph NNW5.8 kmh NNW 7.6 mph12.2 kmh 30.33 in1027.1 mb 0.00 in0.0 mm 0.00 in0.0 mm 0.00 in0.0 mm
05:50 AM 50.5°F10.3°C 45.6°F7.6°C 83% 3.6 mph NNW5.8 kmh NNW 8.1 mph13.0 kmh 30.33 in1027.1 mb 0.00 in0.0 mm 0.00 in0.0 mm 0.00 in0.0 mm
05:55 AM 50.5°F10.3°C 45.9°F7.7°C 84% 3.6 mph NW5.8 kmh NW 8.1 mph13.0 kmh 30.33 in1027.1 mb 0.00 in0.0 mm 0.00 in0.0 mm 0.00 in0.0 mm
06:00 AM 50.5°F10.3°C 45.9°F7.7°C 84% 3.1 mph NW5.0 kmh NW 7.6 mph12.2 kmh 30.33 in1027.1 mb 0.00 in0.0 mm 0.00 in0.0 mm 0.00 in0.0 mm
06:05 AM 50.7°F10.4°C 46.1°F7.8°C 84% 2.7 mph NW4.3 kmh NW 6.3 mph10.1 kmh 30.33 in1027.1 mb 0.00 in0.0 mm 0.00 in0.0 mm 0.00 in0.0 mm
06:10 AM 50.7°F10.4°C 46.1°F7.8°C 84% 2.7 mph NW4.3 kmh NW 5.8 mph9.3 kmh 30.33 in1027.1 mb 0.00 in0.0 mm 0.00 in0.0 mm 0.00 in0.0 mm
06:15 AM 50.9°F10.5°C 46.3°F7.9°C 84% 2.7 mph NW4.3 kmh NW 5.8 mph9.3 kmh 30.33 in1027.1 mb 0.00 in0.0 mm 0.00 in0.0 mm 0.00 in0.0 mm
06:20 AM 51.0°F10.6°C 46.4°F8.0°C 84% 3.1 mph NW5.0 kmh NW 8.1 mph13.0 kmh 30.34 in1027.4 mb 0.00 in0.0 mm 0.00 in0.0 mm 0.00 in0.0 mm
06:25 AM 51.2°F10.7°C 46.6°F8.1°C 84% 3.6 mph NW5.8 kmh NW 9.0 mph14.5 kmh 30.33 in1027.1 mb 0.00 in0.0 mm 0.00 in0.0 mm 0.00 in0.0 mm
06:30 AM 51.2°F10.7°C 46.9°F8.3°C 85% 4.0 mph NW6.4 kmh NW 9.9 mph15.9 kmh 30.34 in1027.4 mb 0.00 in0.0 mm 0.00 in0.0 mm 0.00 in0.0 mm
06:35 AM 51.6°F10.9°C 47.0°F8.3°C 84% 4.5 mph NW7.2 kmh NW 9.9 mph15.9 kmh 30.34 in1027.4 mb 0.00 in0.0 mm 0.00 in0.0 mm 0.00 in0.0 mm
06:40 AM 51.6°F10.9°C 47.0°F8.3°C 84% 4.0 mph NW6.4 kmh NW 9.0 mph14.5 kmh 30.34 in1027.4 mb 0.00 in0.0 mm 0.00 in0.0 mm 0.00 in0.0 mm
06:45 AM 51.8°F11.0°C 47.2°F8.4°C 84% 3.1 mph NW5.0 kmh NW 7.6 mph12.2 kmh 30.34 in1027.4 mb 0.00 in0.0 mm 0.00 in0.0 mm 0.00 in0.0 mm
06:50 AM 51.9°F11.1°C 47.3°F8.5°C 84% 2.7 mph NW4.3 kmh NW 6.3 mph10.1 kmh 30.34 in1027.4 mb 0.00 in0.0 mm 0.00 in0.0 mm 0.00 in0.0 mm
06:55 AM 51.9°F11.1°C 47.3°F8.5°C 84% 2.2 mph WNW3.5 kmh WNW 5.4 mph8.7 kmh 30.34 in1027.4 mb 0.00 in0.0 mm 0.00 in0.0 mm 0.00 in0.0 mm
07:00 AM 52.1°F11.2°C 47.8°F8.8°C 85% 2.7 mph NW4.3 kmh NW 6.3 mph10.1 kmh 30.34 in1027.4 mb 0.00 in0.0 mm 0.00 in0.0 mm 0.00 in0.0 mm
07:05 AM 52.8°F11.6°C 48.5°F9.2°C 85% 3.6 mph NW5.8 kmh NW 8.5 mph13.7 kmh 30.34 in1027.4 mb 0.00 in0.0 mm 0.00 in0.0 mm 0.00 in0.0 mm
07:10 AM 52.8°F11.6°C 48.1°F8.9°C 84% 4.0 mph WNW6.4 kmh WNW 11.2 mph18.0 kmh 30.34 in1027.4 mb 0.00 in0.0 mm 0.00 in0.0 mm 0.00 in0.0 mm
07:15 AM 53.2°F11.8°C 48.5°F9.2°C 84% 4.5 mph WNW7.2 kmh WNW 11.2 mph18.0 kmh 30.34 in1027.4 mb 0.00 in0.0 mm 0.00 in0.0 mm 0.00 in0.0 mm
07:20 AM 53.2°F11.8°C 48.5°F9.2°C 84% 4.9 mph WNW7.9 kmh WNW 12.1 mph19.5 kmh 30.34 in1027.4 mb 0.00 in0.0 mm 0.00 in0.0 mm 0.00 in0.0 mm
07:25 AM 53.2°F11.8°C 48.5°F9.2°C 84% 5.4 mph WNW8.7 kmh WNW 12.1 mph19.5 kmh 30.34 in1027.4 mb 0.00 in0.0 mm 0.00 in0.0 mm 0.00 in0.0 mm
07:30 AM 53.2°F11.8°C 48.5°F9.2°C 84% 5.4 mph WNW8.7 kmh WNW 11.2 mph18.0 kmh 30.34 in1027.4 mb 0.00 in0.0 mm 0.00 in0.0 mm 0.00 in0.0 mm
07:35 AM 54.1°F12.3°C 49.1°F9.5°C 83% 4.5 mph W7.2 kmh W 10.8 mph17.4 kmh 30.34 in1027.4 mb 0.00 in0.0 mm 0.00 in0.0 mm 0.00 in0.0 mm
07:40 AM 54.1°F12.3°C 49.1°F9.5°C 83% 4.0 mph WNW6.4 kmh WNW 7.6 mph12.2 kmh 30.35 in1027.8 mb 0.00 in0.0 mm 0.00 in0.0 mm 0.00 in0.0 mm
07:45 AM 54.1°F12.3°C 48.8°F9.3°C 82% 4.0 mph NW6.4 kmh NW 9.4 mph15.1 kmh 30.35 in1027.8 mb 0.00 in0.0 mm 0.00 in0.0 mm 0.00 in0.0 mm
07:50 AM 54.1°F12.3°C 48.8°F9.3°C 82% 4.5 mph NW7.2 kmh NW 9.4 mph15.1 kmh 30.35 in1027.8 mb 0.00 in0.0 mm 0.00 in0.0 mm 0.00 in0.0 mm
07:55 AM 54.1°F12.3°C 48.8°F9.3°C 82% 4.5 mph WNW7.2 kmh WNW 15.7 mph25.3 kmh 30.35 in1027.8 mb 0.00 in0.0 mm 0.00 in0.0 mm 0.00 in0.0 mm
08:00 AM 54.3°F12.4°C 48.6°F9.2°C 81% 4.5 mph WNW7.2 kmh WNW 15.7 mph25.3 kmh 30.35 in1027.8 mb 0.00 in0.0 mm 0.00 in0.0 mm 0.00 in0.0 mm
08:05 AM 54.5°F12.5°C 48.8°F9.3°C 81% 4.9 mph WNW7.9 kmh WNW 14.3 mph23.0 kmh 30.35 in1027.8 mb 0.00 in0.0 mm 0.00 in0.0 mm 0.00 in0.0 mm
08:10 AM 54.8°F12.7°C 48.8°F9.3°C 80% 4.9 mph NW7.9 kmh NW 13.0 mph20.9 kmh 30.35 in1027.8 mb 0.00 in0.0 mm 0.00 in0.0 mm 0.00 in0.0 mm
08:15 AM 55.5°F13.1°C 48.8°F9.3°C 78% 5.4 mph NW8.7 kmh NW 11.2 mph18.0 kmh 30.34 in1027.4 mb 0.00 in0.0 mm 0.00 in0.0 mm 0.00 in0.0 mm
08:20 AM 56.6°F13.7°C 49.2°F9.6°C 76% 4.9 mph NW7.9 kmh NW 11.2 mph18.0 kmh 30.34 in1027.4 mb 0.00 in0.0 mm 0.00 in0.0 mm 0.00 in0.0 mm
08:25 AM 57.2°F14.0°C 49.7°F9.8°C 76% 5.8 mph NW9.3 kmh NW 15.2 mph24.5 kmh 30.34 in1027.4 mb 0.00 in0.0 mm 0.00 in0.0 mm 0.00 in0.0 mm
08:30 AM 57.9°F14.4°C 50.4°F10.2°C 76% 6.7 mph WNW10.8 kmh WNW 15.2 mph24.5 kmh 30.34 in1027.4 mb 0.00 in0.0 mm 0.00 in0.0 mm 0.00 in0.0 mm
08:35 AM 58.6°F14.8°C 51.1°F10.6°C 76% 7.6 mph WNW12.2 kmh WNW 17.9 mph28.8 kmh 30.34 in1027.4 mb 0.00 in0.0 mm 0.00 in0.0 mm 0.00 in0.0 mm
08:40 AM 60.0°F15.6°C 51.4°F10.8°C 73% 8.1 mph WNW13.0 kmh WNW 17.9 mph28.8 kmh 30.34 in1027.4 mb 0.00 in0.0 mm 0.00 in0.0 mm 0.00 in0.0 mm
08:45 AM 60.2°F15.7°C 51.5°F10.8°C 73% 7.6 mph WNW12.2 kmh WNW 16.1 mph25.9 kmh 30.34 in1027.4 mb 0.00 in0.0 mm 0.00 in0.0 mm 0.00 in0.0 mm
08:50 AM 60.4°F15.8°C 51.7°F10.9°C 73% 7.6 mph W12.2 kmh W 14.8 mph23.8 kmh 30.34 in1027.4 mb 0.00 in0.0 mm 0.00 in0.0 mm 0.00 in0.0 mm
08:55 AM 61.1°F16.2°C 51.7°F10.9°C 71% 7.6 mph W12.2 kmh W 19.7 mph31.7 kmh 30.34 in1027.4 mb 0.00 in0.0 mm 0.00 in0.0 mm 0.00 in0.0 mm
09:00 AM 61.5°F16.4°C 51.7°F10.9°C 70% 8.5 mph WNW13.7 kmh WNW 19.7 mph31.7 kmh 30.34 in1027.4 mb 0.00 in0.0 mm 0.00 in0.0 mm 0.00 in0.0 mm
09:05 AM 59.9°F15.5°C 50.9°F10.5°C 72% 8.1 mph W13.0 kmh W 17.0 mph27.4 kmh 30.34 in1027.4 mb 0.00 in0.0 mm 0.00 in0.0 mm 0.00 in0.0 mm
09:10 AM 60.9°F16.1°C 51.5°F10.8°C 71% 6.7 mph W10.8 kmh W 17.0 mph27.4 kmh 30.34 in1027.4 mb 0.00 in0.0 mm 0.00 in0.0 mm 0.00 in0.0 mm
09:15 AM 60.8°F16.0°C 51.0°F10.6°C 70% 7.2 mph W11.6 kmh W 15.2 mph24.5 kmh 30.34 in1027.4 mb 0.00 in0.0 mm 0.00 in0.0 mm 0.00 in0.0 mm
09:20 AM 61.8°F16.6°C 51.6°F10.9°C 69% 8.1 mph W13.0 kmh W 16.6 mph26.7 kmh 30.34 in1027.4 mb 0.00 in0.0 mm 0.00 in0.0 mm 0.00 in0.0 mm
09:25 AM 61.7°F16.5°C 51.5°F10.8°C 69% 9.4 mph WNW15.1 kmh WNW 20.2 mph32.5 kmh 30.34 in1027.4 mb 0.00 in0.0 mm 0.00 in0.0 mm 0.00 in0.0 mm
09:30 AM 61.5°F16.4°C 51.7°F10.9°C 70% 10.3 mph WNW16.6 kmh WNW 20.2 mph32.5 kmh 30.34 in1027.4 mb 0.00 in0.0 mm 0.00 in0.0 mm 0.00 in0.0 mm
09:35 AM 61.5°F16.4°C 51.7°F10.9°C 70% 9.0 mph W14.5 kmh W 19.3 mph31.1 kmh 30.34 in1027.4 mb 0.00 in0.0 mm 0.00 in0.0 mm 0.00 in0.0 mm
09:40 AM 62.2°F16.8°C 51.5°F10.8°C 68% 9.0 mph WNW14.5 kmh WNW 19.3 mph31.1 kmh 30.34 in1027.4 mb 0.00 in0.0 mm 0.00 in0.0 mm 0.00 in0.0 mm
09:45 AM 62.0°F16.7°C 51.0°F10.6°C 67% 9.4 mph WNW15.1 kmh WNW 20.2 mph32.5 kmh 30.33 in1027.1 mb 0.00 in0.0 mm 0.00 in0.0 mm 0.00 in0.0 mm
09:50 AM 61.7°F16.5°C 51.1°F10.6°C 68% 9.4 mph WNW15.1 kmh WNW 20.2 mph32.5 kmh 30.33 in1027.1 mb 0.00 in0.0 mm 0.00 in0.0 mm 0.00 in0.0 mm
09:55 AM 61.7°F16.5°C 50.7°F10.4°C 67% 9.9 mph W15.9 kmh W 21.5 mph34.6 kmh 30.33 in1027.1 mb 0.00 in0.0 mm 0.00 in0.0 mm 0.00 in0.0 mm
10:00 AM 62.6°F17.0°C 50.7°F10.4°C 65% 8.5 mph WNW13.7 kmh WNW 21.5 mph34.6 kmh 30.33 in1027.1 mb 0.00 in0.0 mm 0.00 in0.0 mm 0.00 in0.0 mm
10:05 AM 61.8°F16.6°C 51.2°F10.7°C 68% 7.6 mph WNW12.2 kmh WNW 17.5 mph28.2 kmh 30.33 in1027.1 mb 0.00 in0.0 mm 0.00 in0.0 mm 0.00 in0.0 mm
10:10 AM 62.7°F17.1°C 50.8°F10.4°C 65% 8.5 mph WNW13.7 kmh WNW 19.3 mph31.1 kmh 30.33 in1027.1 mb 0.00 in0.0 mm 0.00 in0.0 mm 0.00 in0.0 mm
10:15 AM 63.6°F17.6°C 51.2°F10.7°C 64% 9.0 mph WNW14.5 kmh WNW 19.3 mph31.1 kmh 30.33 in1027.1 mb 0.00 in0.0 mm 0.00 in0.0 mm 0.00 in0.0 mm
10:20 AM 63.6°F17.6°C 50.4°F10.2°C 62% 9.4 mph WNW15.1 kmh WNW 20.2 mph32.5 kmh 30.33 in1027.1 mb 0.00 in0.0 mm 0.00 in0.0 mm 0.00 in0.0 mm
10:25 AM 63.6°F17.6°C 50.8°F10.4°C 63% 9.4 mph W15.1 kmh W 21.5 mph34.6 kmh 30.33 in1027.1 mb 0.00 in0.0 mm 0.00 in0.0 mm 0.00 in0.0 mm
10:30 AM 64.2°F17.9°C 50.9°F10.5°C 62% 9.9 mph W15.9 kmh W 22.0 mph35.4 kmh 30.33 in1027.1 mb 0.00 in0.0 mm 0.00 in0.0 mm 0.00 in0.0 mm
10:35 AM 64.0°F17.8°C 50.3°F10.2°C 61% 9.9 mph W15.9 kmh W 22.0 mph35.4 kmh 30.33 in1027.1 mb 0.00 in0.0 mm 0.00 in0.0 mm 0.00 in0.0 mm
10:40 AM 64.0°F17.8°C 50.3°F10.2°C 61% 10.3 mph WNW16.6 kmh WNW 27.3 mph43.9 kmh 30.33 in1027.1 mb 0.00 in0.0 mm 0.00 in0.0 mm 0.00 in0.0 mm
10:45 AM 63.8°F17.7°C 50.6°F10.3°C 62% 9.4 mph WNW15.1 kmh WNW 27.3 mph43.9 kmh 30.33 in1027.1 mb 0.00 in0.0 mm 0.00 in0.0 mm 0.00 in0.0 mm
10:50 AM 63.8°F17.7°C 50.1°F10.1°C 61% 9.0 mph W14.5 kmh W 21.5 mph34.6 kmh 30.33 in1027.1 mb 0.00 in0.0 mm 0.00 in0.0 mm 0.00 in0.0 mm
10:55 AM 64.0°F17.8°C 49.9°F9.9°C 60% 8.5 mph WSW13.7 kmh WSW 21.5 mph34.6 kmh 30.33 in1027.1 mb 0.00 in0.0 mm 0.00 in0.0 mm 0.00 in0.0 mm
11:00 AM 65.3°F18.5°C 50.6°F10.3°C 59% 7.6 mph W12.2 kmh W 18.8 mph30.3 kmh 30.32 in1026.8 mb 0.00 in0.0 mm 0.00 in0.0 mm 0.00 in0.0 mm
11:05 AM 65.8°F18.8°C 50.6°F10.3°C 58% 8.5 mph W13.7 kmh W 21.5 mph34.6 kmh 30.32 in1026.8 mb 0.00 in0.0 mm 0.00 in0.0 mm 0.00 in0.0 mm
11:10 AM 64.7°F18.2°C 50.1°F10.1°C 59% 9.4 mph W15.1 kmh W 21.5 mph34.6 kmh 30.32 in1026.8 mb 0.00 in0.0 mm 0.00 in0.0 mm 0.00 in0.0 mm
11:15 AM 65.6°F18.7°C 50.0°F10.0°C 57% 9.0 mph W14.5 kmh W 20.6 mph33.2 kmh 30.32 in1026.8 mb 0.00 in0.0 mm 0.00 in0.0 mm 0.00 in0.0 mm
11:20 AM 64.4°F18.0°C 49.8°F9.9°C 59% 8.5 mph WSW13.7 kmh WSW 24.2 mph38.9 kmh 30.32 in1026.8 mb 0.00 in0.0 mm 0.00 in0.0 mm 0.00 in0.0 mm
11:25 AM 64.0°F17.8°C 49.0°F9.4°C 58% 9.0 mph W14.5 kmh W 24.2 mph38.9 kmh 30.32 in1026.8 mb 0.00 in0.0 mm 0.00 in0.0 mm 0.00 in0.0 mm
11:30 AM 65.3°F18.5°C 50.2°F10.1°C 58% 9.0 mph W14.5 kmh W 20.6 mph33.2 kmh 30.32 in1026.8 mb 0.00 in0.0 mm 0.00 in0.0 mm 0.00 in0.0 mm
11:35 AM 64.4°F18.0°C 48.9°F9.4°C 57% 8.5 mph WSW13.7 kmh WSW 20.6 mph33.2 kmh 30.32 in1026.8 mb 0.00 in0.0 mm 0.00 in0.0 mm 0.00 in0.0 mm
11:40 AM 63.6°F17.6°C 49.0°F9.4°C 59% 7.6 mph WSW12.2 kmh WSW 19.7 mph31.7 kmh 30.32 in1026.8 mb 0.00 in0.0 mm 0.00 in0.0 mm 0.00 in0.0 mm
11:45 AM 63.1°F17.3°C 48.6°F9.2°C 59% 8.1 mph WSW13.0 kmh WSW 23.7 mph38.1 kmh 30.32 in1026.8 mb 0.00 in0.0 mm 0.00 in0.0 mm 0.00 in0.0 mm
11:50 AM 63.8°F17.7°C 49.2°F9.6°C 59% 8.5 mph WSW13.7 kmh WSW 23.7 mph38.1 kmh 30.32 in1026.8 mb 0.00 in0.0 mm 0.00 in0.0 mm 0.00 in0.0 mm
11:55 AM 64.7°F18.2°C 49.6°F9.8°C 58% 8.5 mph W13.7 kmh W 20.2 mph32.5 kmh 30.32 in1026.8 mb 0.00 in0.0 mm 0.00 in0.0 mm 0.00 in0.0 mm
12:00 PM 65.1°F18.4°C 50.0°F10.0°C 58% 9.4 mph W15.1 kmh W 19.3 mph31.1 kmh 30.31 in1026.4 mb 0.00 in0.0 mm 0.00 in0.0 mm 0.00 in0.0 mm
12:05 PM 65.8°F18.8°C 50.2°F10.1°C 57% 9.4 mph WNW15.1 kmh WNW 18.8 mph30.3 kmh 30.32 in1026.8 mb 0.00 in0.0 mm 0.00 in0.0 mm 0.00 in0.0 mm
12:10 PM 65.1°F18.4°C 49.0°F9.4°C 56% 8.5 mph W13.7 kmh W 18.8 mph30.3 kmh 30.32 in1026.8 mb 0.00 in0.0 mm 0.00 in0.0 mm 0.00 in0.0 mm
12:15 PM 65.1°F18.4°C 49.0°F9.4°C 56% 7.6 mph WSW12.2 kmh WSW 18.8 mph30.3 kmh 30.31 in1026.4 mb 0.00 in0.0 mm 0.00 in0.0 mm 0.00 in0.0 mm
12:20 PM 63.1°F17.3°C 48.6°F9.2°C 59% 8.1 mph WSW13.0 kmh WSW 20.6 mph33.2 kmh 30.31 in1026.4 mb 0.00 in0.0 mm 0.00 in0.0 mm 0.00 in0.0 mm
12:25 PM 63.1°F17.3°C 48.6°F9.2°C 59% 7.6 mph WSW12.2 kmh WSW 20.6 mph33.2 kmh 30.31 in1026.4 mb 0.00 in0.0 mm 0.00 in0.0 mm 0.00 in0.0 mm
12:30 PM 63.5°F17.5°C 48.9°F9.4°C 59% 6.3 mph WSW10.1 kmh WSW 19.3 mph31.1 kmh 30.31 in1026.4 mb 0.00 in0.0 mm 0.00 in0.0 mm 0.00 in0.0 mm
12:35 PM 64.0°F17.8°C 48.5°F9.2°C 57% 7.2 mph WSW11.6 kmh WSW 16.1 mph25.9 kmh 30.31 in1026.4 mb 0.00 in0.0 mm 0.00 in0.0 mm 0.00 in0.0 mm
12:40 PM 63.8°F17.7°C 48.3°F9.1°C 57% 7.6 mph WSW12.2 kmh WSW 16.6 mph26.7 kmh 30.31 in1026.4 mb 0.00 in0.0 mm 0.00 in0.0 mm 0.00 in0.0 mm
12:45 PM 63.6°F17.6°C 48.1°F8.9°C 57% 8.5 mph WSW13.7 kmh WSW 19.7 mph31.7 kmh 30.31 in1026.4 mb 0.00 in0.0 mm 0.00 in0.0 mm 0.00 in0.0 mm
12:50 PM 64.2°F17.9°C 48.7°F9.3°C 57% 8.5 mph WSW13.7 kmh WSW 21.5 mph34.6 kmh 30.31 in1026.4 mb 0.00 in0.0 mm 0.00 in0.0 mm 0.00 in0.0 mm
12:55 PM 63.1°F17.3°C 48.1°F8.9°C 58% 8.1 mph WSW13.0 kmh WSW 26.9 mph43.3 kmh 30.31 in1026.4 mb 0.00 in0.0 mm 0.00 in0.0 mm 0.00 in0.0 mm
01:00 PM 64.0°F17.8°C 48.0°F8.9°C 56% 9.0 mph WSW14.5 kmh WSW 26.9 mph43.3 kmh 30.31 in1026.4 mb 0.00 in0.0 mm 0.00 in0.0 mm 0.00 in0.0 mm
01:05 PM 64.0°F17.8°C 48.0°F8.9°C 56% 9.0 mph WSW14.5 kmh WSW 26.0 mph41.8 kmh 30.31 in1026.4 mb 0.00 in0.0 mm 0.00 in0.0 mm 0.00 in0.0 mm
01:10 PM 64.9°F18.3°C 47.9°F8.8°C 54% 7.6 mph WSW12.2 kmh WSW 21.1 mph34.0 kmh 30.31 in1026.4 mb 0.00 in0.0 mm 0.00 in0.0 mm 0.00 in0.0 mm
01:15 PM 64.2°F17.9°C 48.2°F9.0°C 56% 8.5 mph WSW13.7 kmh WSW 23.7 mph38.1 kmh 30.31 in1026.4 mb 0.00 in0.0 mm 0.00 in0.0 mm 0.00 in0.0 mm
01:20 PM 64.0°F17.8°C 48.0°F8.9°C 56% 9.4 mph WSW15.1 kmh WSW 23.7 mph38.1 kmh 30.31 in1026.4 mb 0.00 in0.0 mm 0.00 in0.0 mm 0.00 in0.0 mm
01:25 PM 64.0°F17.8°C 48.0°F8.9°C 56% 9.0 mph WSW14.5 kmh WSW 23.7 mph38.1 kmh 30.31 in1026.4 mb 0.00 in0.0 mm 0.00 in0.0 mm 0.00 in0.0 mm
01:30 PM 64.5°F18.1°C 48.5°F9.2°C 56% 9.0 mph WSW14.5 kmh WSW 22.0 mph35.4 kmh 30.30 in1026.1 mb 0.00 in0.0 mm 0.00 in0.0 mm 0.00 in0.0 mm
01:35 PM 64.4°F18.0°C 48.4°F9.1°C 56% 9.0 mph WSW14.5 kmh WSW 25.1 mph40.4 kmh 30.30 in1026.1 mb 0.00 in0.0 mm 0.00 in0.0 mm 0.00 in0.0 mm
01:40 PM 65.1°F18.4°C 47.6°F8.7°C 53% 8.5 mph WSW13.7 kmh WSW 25.1 mph40.4 kmh 30.30 in1026.1 mb 0.00 in0.0 mm 0.00 in0.0 mm 0.00 in0.0 mm
01:45 PM 64.4°F18.0°C 48.4°F9.1°C 56% 8.5 mph WSW13.7 kmh WSW 23.7 mph38.1 kmh 30.30 in1026.1 mb 0.00 in0.0 mm 0.00 in0.0 mm 0.00 in0.0 mm
01:50 PM 65.3°F18.5°C 48.8°F9.3°C 55% 8.1 mph WSW13.0 kmh WSW 20.2 mph32.5 kmh 30.29 in1025.7 mb 0.00 in0.0 mm 0.00 in0.0 mm 0.00 in0.0 mm
01:55 PM 64.0°F17.8°C 48.0°F8.9°C 56% 8.5 mph WSW13.7 kmh WSW 22.0 mph35.4 kmh 30.30 in1026.1 mb 0.00 in0.0 mm 0.00 in0.0 mm 0.00 in0.0 mm
02:00 PM 64.2°F17.9°C 48.7°F9.3°C 57% 9.0 mph WSW14.5 kmh WSW 22.0 mph35.4 kmh 30.29 in1025.7 mb 0.00 in0.0 mm 0.00 in0.0 mm 0.00 in0.0 mm
02:05 PM 63.8°F17.7°C 47.8°F8.8°C 56% 9.9 mph WSW15.9 kmh WSW 28.7 mph46.2 kmh 30.29 in1025.7 mb 0.00 in0.0 mm 0.00 in0.0 mm 0.00 in0.0 mm
02:10 PM 63.8°F17.7°C 47.8°F8.8°C 56% 9.4 mph WSW15.1 kmh WSW 28.7 mph46.2 kmh 30.29 in1025.7 mb 0.00 in0.0 mm 0.00 in0.0 mm 0.00 in0.0 mm
02:15 PM 63.8°F17.7°C 47.8°F8.8°C 56% 8.5 mph WSW13.7 kmh WSW 20.2 mph32.5 kmh 30.29 in1025.7 mb 0.00 in0.0 mm 0.00 in0.0 mm 0.00 in0.0 mm
02:20 PM 63.8°F17.7°C 47.8°F8.8°C 56% 8.5 mph WSW13.7 kmh WSW 22.8 mph36.7 kmh 30.29 in1025.7 mb 0.00 in0.0 mm 0.00 in0.0 mm 0.00 in0.0 mm
02:25 PM 63.8°F17.7°C 47.8°F8.8°C 56% 8.5 mph WSW13.7 kmh WSW 22.8 mph36.7 kmh 30.29 in1025.7 mb 0.00 in0.0 mm 0.00 in0.0 mm 0.00 in0.0 mm
02:30 PM 62.9°F17.2°C 47.0°F8.3°C 56% 9.9 mph WSW15.9 kmh WSW 22.8 mph36.7 kmh 30.29 in1025.7 mb 0.00 in0.0 mm 0.00 in0.0 mm 0.00 in0.0 mm
02:35 PM 63.5°F17.5°C 47.6°F8.7°C 56% 11.2 mph SW18.0 kmh SW 23.3 mph37.5 kmh 30.28 in1025.4 mb 0.00 in0.0 mm 0.00 in0.0 mm 0.00 in0.0 mm
02:40 PM 63.6°F17.6°C 47.6°F8.7°C 56% 9.9 mph WSW15.9 kmh WSW 23.3 mph37.5 kmh 30.28 in1025.4 mb 0.00 in0.0 mm 0.00 in0.0 mm 0.00 in0.0 mm
02:45 PM 62.7°F17.1°C 46.8°F8.2°C 56% 9.0 mph WSW14.5 kmh WSW 26.0 mph41.8 kmh 30.28 in1025.4 mb 0.00 in0.0 mm 0.00 in0.0 mm 0.00 in0.0 mm
02:50 PM 62.7°F17.1°C 47.3°F8.5°C 57% 9.0 mph WSW14.5 kmh WSW 26.0 mph41.8 kmh 30.28 in1025.4 mb 0.00 in0.0 mm 0.00 in0.0 mm 0.00 in0.0 mm
02:55 PM 62.7°F17.1°C 46.8°F8.2°C 56% 8.5 mph SW13.7 kmh SW 21.5 mph34.6 kmh 30.28 in1025.4 mb 0.00 in0.0 mm 0.00 in0.0 mm 0.00 in0.0 mm
03:00 PM 62.4°F16.9°C 47.0°F8.3°C 57% 8.5 mph SW13.7 kmh SW 21.5 mph34.6 kmh 30.28 in1025.4 mb 0.00 in0.0 mm 0.00 in0.0 mm 0.00 in0.0 mm
03:05 PM 63.6°F17.6°C 48.1°F8.9°C 57% 9.0 mph SW14.5 kmh SW 21.5 mph34.6 kmh 30.27 in1025.1 mb 0.00 in0.0 mm 0.00 in0.0 mm 0.00 in0.0 mm
03:10 PM 62.2°F16.8°C 47.3°F8.5°C 58% 9.0 mph SW14.5 kmh SW 24.6 mph39.6 kmh 30.27 in1025.1 mb 0.00 in0.0 mm 0.00 in0.0 mm 0.00 in0.0 mm
03:15 PM 62.2°F16.8°C 46.8°F8.2°C 57% 9.4 mph WSW15.1 kmh WSW 24.6 mph39.6 kmh 30.27 in1025.1 mb 0.00 in0.0 mm 0.00 in0.0 mm 0.00 in0.0 mm
03:20 PM 62.7°F17.1°C 47.3°F8.5°C 57% 8.5 mph WSW13.7 kmh WSW 22.8 mph36.7 kmh 30.27 in1025.1 mb 0.00 in0.0 mm 0.00 in0.0 mm 0.00 in0.0 mm
03:25 PM 62.6°F17.0°C 47.2°F8.4°C 57% 7.6 mph WSW12.2 kmh WSW 20.2 mph32.5 kmh 30.27 in1025.1 mb 0.00 in0.0 mm 0.00 in0.0 mm 0.00 in0.0 mm
03:30 PM 62.0°F16.7°C 47.1°F8.4°C 58% 8.5 mph SW13.7 kmh SW 20.2 mph32.5 kmh 30.27 in1025.1 mb 0.00 in0.0 mm 0.00 in0.0 mm 0.00 in0.0 mm
03:35 PM 63.3°F17.4°C 47.4°F8.6°C 56% 8.5 mph SW13.7 kmh SW 18.4 mph29.6 kmh 30.27 in1025.1 mb 0.00 in0.0 mm 0.00 in0.0 mm 0.00 in0.0 mm
03:40 PM 62.9°F17.2°C 47.5°F8.6°C 57% 7.2 mph WSW11.6 kmh WSW 18.8 mph30.3 kmh 30.27 in1025.1 mb 0.00 in0.0 mm 0.00 in0.0 mm 0.00 in0.0 mm
03:45 PM 61.5°F16.4°C 47.1°F8.4°C 59% 8.5 mph SW13.7 kmh SW 23.7 mph38.1 kmh 30.27 in1025.1 mb 0.00 in0.0 mm 0.00 in0.0 mm 0.00 in0.0 mm
03:50 PM 62.0°F16.7°C 47.1°F8.4°C 58% 9.4 mph SW15.1 kmh SW 23.7 mph38.1 kmh 30.27 in1025.1 mb 0.00 in0.0 mm 0.00 in0.0 mm 0.00 in0.0 mm
03:55 PM 61.3°F16.3°C 47.3°F8.5°C 60% 8.5 mph SW13.7 kmh SW 22.8 mph36.7 kmh 30.27 in1025.1 mb 0.00 in0.0 mm 0.00 in0.0 mm 0.00 in0.0 mm
04:00 PM 61.8°F16.6°C 47.8°F8.8°C 60% 8.5 mph SW13.7 kmh SW 18.8 mph30.3 kmh 30.27 in1025.1 mb 0.00 in0.0 mm 0.00 in0.0 mm 0.00 in0.0 mm
04:05 PM 61.7°F16.5°C 47.3°F8.5°C 59% 7.6 mph WSW12.2 kmh WSW 18.4 mph29.6 kmh 30.27 in1025.1 mb 0.00 in0.0 mm 0.00 in0.0 mm 0.00 in0.0 mm
04:10 PM 61.3°F16.3°C 46.9°F8.3°C 59% 9.0 mph WSW14.5 kmh WSW 19.3 mph31.1 kmh 30.27 in1025.1 mb 0.00 in0.0 mm 0.00 in0.0 mm 0.00 in0.0 mm
04:15 PM 60.8°F16.0°C 47.7°F8.7°C 62% 9.4 mph SW15.1 kmh SW 37.2 mph59.9 kmh 30.27 in1025.1 mb 0.00 in0.0 mm 0.00 in0.0 mm 0.00 in0.0 mm
04:20 PM 60.6°F15.9°C 48.0°F8.9°C 63% 9.4 mph SW15.1 kmh SW 37.2 mph59.9 kmh 30.27 in1025.1 mb 0.00 in0.0 mm 0.00 in0.0 mm 0.00 in0.0 mm
04:25 PM 60.6°F15.9°C 48.0°F8.9°C 63% 8.1 mph SW13.0 kmh SW 18.8 mph30.3 kmh 30.27 in1025.1 mb 0.00 in0.0 mm 0.00 in0.0 mm 0.00 in0.0 mm
04:30 PM 59.9°F15.5°C 48.1°F8.9°C 65% 7.6 mph WSW12.2 kmh WSW 22.4 mph36.0 kmh 30.27 in1025.1 mb 0.00 in0.0 mm 0.00 in0.0 mm 0.00 in0.0 mm
04:35 PM 59.5°F15.3°C 48.2°F9.0°C 66% 9.0 mph SW14.5 kmh SW 22.4 mph36.0 kmh 30.27 in1025.1 mb 0.00 in0.0 mm 0.00 in0.0 mm 0.00 in0.0 mm
04:40 PM 60.0°F15.6°C 48.2°F9.0°C 65% 7.6 mph SW12.2 kmh SW 16.6 mph26.7 kmh 30.27 in1025.1 mb 0.00 in0.0 mm 0.00 in0.0 mm 0.00 in0.0 mm
04:45 PM 59.5°F15.3°C 47.8°F8.8°C 65% 6.3 mph WSW10.1 kmh WSW 18.8 mph30.3 kmh 30.27 in1025.1 mb 0.00 in0.0 mm 0.00 in0.0 mm 0.00 in0.0 mm
04:50 PM 59.3°F15.2°C 48.4°F9.1°C 67% 7.6 mph SW12.2 kmh SW 23.3 mph37.5 kmh 30.27 in1025.1 mb 0.00 in0.0 mm 0.00 in0.0 mm 0.00 in0.0 mm
04:55 PM 59.3°F15.2°C 48.4°F9.1°C 67% 8.1 mph SW13.0 kmh SW 23.3 mph37.5 kmh 30.27 in1025.1 mb 0.00 in0.0 mm 0.00 in0.0 mm 0.00 in0.0 mm
05:00 PM 59.0°F15.0°C 48.5°F9.2°C 68% 7.6 mph SW12.2 kmh SW 19.7 mph31.7 kmh 30.27 in1025.1 mb 0.00 in0.0 mm 0.00 in0.0 mm 0.00 in0.0 mm
05:05 PM 59.1°F15.1°C 48.6°F9.2°C 68% 8.1 mph WSW13.0 kmh WSW 19.3 mph31.1 kmh 30.27 in1025.1 mb 0.00 in0.0 mm 0.00 in0.0 mm 0.00 in0.0 mm
05:10 PM 58.8°F14.9°C 48.7°F9.3°C 69% 8.1 mph WSW13.0 kmh WSW 22.0 mph35.4 kmh 30.27 in1025.1 mb 0.00 in0.0 mm 0.00 in0.0 mm 0.00 in0.0 mm
05:15 PM 58.8°F14.9°C 48.7°F9.3°C 69% 7.6 mph WSW12.2 kmh WSW 22.0 mph35.4 kmh 30.27 in1025.1 mb 0.00 in0.0 mm 0.00 in0.0 mm 0.00 in0.0 mm
05:20 PM 58.8°F14.9°C 48.7°F9.3°C 69% 6.7 mph WSW10.8 kmh WSW 16.6 mph26.7 kmh 30.27 in1025.1 mb 0.00 in0.0 mm 0.00 in0.0 mm 0.00 in0.0 mm
05:25 PM 58.6°F14.8°C 48.5°F9.2°C 69% 6.3 mph SW10.1 kmh SW 17.5 mph28.2 kmh 30.27 in1025.1 mb 0.00 in0.0 mm 0.00 in0.0 mm 0.00 in0.0 mm
05:30 PM 58.4°F14.7°C 49.1°F9.5°C 71% 6.7 mph SW10.8 kmh SW 25.1 mph40.4 kmh 30.28 in1025.4 mb 0.00 in0.0 mm 0.00 in0.0 mm 0.00 in0.0 mm
05:35 PM 58.4°F14.7°C 49.1°F9.5°C 71% 6.7 mph WSW10.8 kmh WSW 25.1 mph40.4 kmh 30.28 in1025.4 mb 0.00 in0.0 mm 0.00 in0.0 mm 0.00 in0.0 mm
05:40 PM 58.2°F14.6°C 48.5°F9.2°C 70% 5.8 mph WSW9.3 kmh WSW 16.6 mph26.7 kmh 30.28 in1025.4 mb 0.00 in0.0 mm 0.00 in0.0 mm 0.00 in0.0 mm
05:45 PM 57.9°F14.4°C 48.2°F9.0°C 70% 7.2 mph WSW11.6 kmh WSW 19.7 mph31.7 kmh 30.28 in1025.4 mb 0.00 in0.0 mm 0.00 in0.0 mm 0.00 in0.0 mm
05:50 PM 57.9°F14.4°C 48.6°F9.2°C 71% 6.7 mph WSW10.8 kmh WSW 19.7 mph31.7 kmh 30.28 in1025.4 mb 0.00 in0.0 mm 0.00 in0.0 mm 0.00 in0.0 mm
05:55 PM 57.5°F14.2°C 48.6°F9.2°C 72% 6.3 mph WSW10.1 kmh WSW 16.6 mph26.7 kmh 30.28 in1025.4 mb 0.00 in0.0 mm 0.00 in0.0 mm 0.00 in0.0 mm
06:00 PM 57.3°F14.1°C 48.8°F9.3°C 73% 5.8 mph SW9.3 kmh SW 15.2 mph24.5 kmh 30.28 in1025.4 mb 0.00 in0.0 mm 0.00 in0.0 mm 0.00 in0.0 mm
06:05 PM 57.5°F14.2°C 48.9°F9.4°C 73% 5.8 mph WSW9.3 kmh WSW 16.6 mph26.7 kmh 30.28 in1025.4 mb 0.00 in0.0 mm 0.00 in0.0 mm 0.00 in0.0 mm
06:10 PM 57.3°F14.1°C 49.1°F9.5°C 74% 6.3 mph WSW10.1 kmh WSW 16.6 mph26.7 kmh 30.28 in1025.4 mb 0.00 in0.0 mm 0.00 in0.0 mm 0.00 in0.0 mm
06:15 PM 57.2°F14.0°C 49.4°F9.7°C 75% 5.8 mph WSW9.3 kmh WSW 15.2 mph24.5 kmh 30.28 in1025.4 mb 0.00 in0.0 mm 0.00 in0.0 mm 0.00 in0.0 mm
06:20 PM 57.0°F13.9°C 49.2°F9.6°C 75% 4.5 mph WSW7.2 kmh WSW 10.3 mph16.6 kmh 30.28 in1025.4 mb 0.00 in0.0 mm 0.00 in0.0 mm 0.00 in0.0 mm
06:25 PM 56.8°F13.8°C 49.4°F9.7°C 76% 4.0 mph WSW6.4 kmh WSW 14.3 mph23.0 kmh 30.28 in1025.4 mb 0.00 in0.0 mm 0.00 in0.0 mm 0.00 in0.0 mm
06:30 PM 56.8°F13.8°C 49.4°F9.7°C 76% 4.5 mph WSW7.2 kmh WSW 14.3 mph23.0 kmh 30.29 in1025.7 mb 0.00 in0.0 mm 0.00 in0.0 mm 0.00 in0.0 mm
06:35 PM 56.8°F13.8°C 49.7°F9.8°C 77% 4.5 mph WSW7.2 kmh WSW 11.2 mph18.0 kmh 30.29 in1025.7 mb 0.00 in0.0 mm 0.00 in0.0 mm 0.00 in0.0 mm
06:40 PM 56.6°F13.7°C 49.5°F9.7°C 77% 4.5 mph WSW7.2 kmh WSW 11.2 mph18.0 kmh 30.29 in1025.7 mb 0.00 in0.0 mm 0.00 in0.0 mm 0.00 in0.0 mm
06:45 PM 56.4°F13.6°C 49.3°F9.6°C 77% 4.5 mph WSW7.2 kmh WSW 11.2 mph18.0 kmh 30.28 in1025.4 mb 0.00 in0.0 mm 0.00 in0.0 mm 0.00 in0.0 mm
06:50 PM 56.4°F13.6°C 49.3°F9.6°C 77% 4.0 mph WSW6.4 kmh WSW 12.1 mph19.5 kmh 30.29 in1025.7 mb 0.00 in0.0 mm 0.00 in0.0 mm 0.00 in0.0 mm
06:55 PM 56.3°F13.5°C 49.6°F9.8°C 78% 4.5 mph WSW7.2 kmh WSW 12.1 mph19.5 kmh 30.29 in1025.7 mb 0.00 in0.0 mm 0.00 in0.0 mm 0.00 in0.0 mm
07:00 PM 56.3°F13.5°C 49.6°F9.8°C 78% 4.9 mph WSW7.9 kmh WSW 11.6 mph18.7 kmh 30.29 in1025.7 mb 0.00 in0.0 mm 0.00 in0.0 mm 0.00 in0.0 mm
07:05 PM 56.1°F13.4°C 49.4°F9.7°C 78% 4.9 mph SW7.9 kmh SW 12.1 mph19.5 kmh 30.29 in1025.7 mb 0.00 in0.0 mm 0.00 in0.0 mm 0.00 in0.0 mm
07:10 PM 55.9°F13.3°C 49.5°F9.7°C 79% 4.9 mph SW7.9 kmh SW 12.1 mph19.5 kmh 30.29 in1025.7 mb 0.00 in0.0 mm 0.00 in0.0 mm 0.00 in0.0 mm
07:15 PM 56.1°F13.4°C 49.7°F9.8°C 79% 4.5 mph WSW7.2 kmh WSW 11.2 mph18.0 kmh 30.29 in1025.7 mb 0.00 in0.0 mm 0.00 in0.0 mm 0.00 in0.0 mm
07:20 PM 55.9°F13.3°C 49.5°F9.7°C 79% 4.0 mph WSW6.4 kmh WSW 13.0 mph20.9 kmh 30.29 in1025.7 mb 0.00 in0.0 mm 0.00 in0.0 mm 0.00 in0.0 mm
07:25 PM 55.7°F13.2°C 49.3°F9.6°C 79% 4.5 mph SW7.2 kmh SW 13.0 mph20.9 kmh 30.29 in1025.7 mb 0.00 in0.0 mm 0.00 in0.0 mm 0.00 in0.0 mm
07:30 PM 55.7°F13.2°C 49.3°F9.6°C 79% 4.5 mph SW7.2 kmh SW 10.8 mph17.4 kmh 30.29 in1025.7 mb 0.00 in0.0 mm 0.00 in0.0 mm 0.00 in0.0 mm
07:35 PM 55.5°F13.1°C 49.1°F9.5°C 79% 4.0 mph WSW6.4 kmh WSW 9.4 mph15.1 kmh 30.29 in1025.7 mb 0.00 in0.0 mm 0.00 in0.0 mm 0.00 in0.0 mm
07:40 PM 55.5°F13.1°C 49.5°F9.7°C 80% 4.5 mph WSW7.2 kmh WSW 15.7 mph25.3 kmh 30.29 in1025.7 mb 0.00 in0.0 mm 0.00 in0.0 mm 0.00 in0.0 mm
07:45 PM 55.4°F13.0°C 49.4°F9.7°C 80% 4.9 mph WSW7.9 kmh WSW 15.7 mph25.3 kmh 30.29 in1025.7 mb 0.00 in0.0 mm 0.00 in0.0 mm 0.00 in0.0 mm
07:50 PM 55.2°F12.9°C 49.2°F9.6°C 80% 4.5 mph WSW7.2 kmh WSW 9.9 mph15.9 kmh 30.29 in1025.7 mb 0.00 in0.0 mm 0.00 in0.0 mm 0.00 in0.0 mm
07:55 PM 55.2°F12.9°C 49.2°F9.6°C 80% 4.0 mph WSW6.4 kmh WSW 9.9 mph15.9 kmh 30.30 in1026.1 mb 0.00 in0.0 mm 0.00 in0.0 mm 0.00 in0.0 mm
08:00 PM 55.0°F12.8°C 49.3°F9.6°C 81% 3.6 mph WSW5.8 kmh WSW 9.9 mph15.9 kmh 30.29 in1025.7 mb 0.00 in0.0 mm 0.00 in0.0 mm 0.00 in0.0 mm
08:05 PM 54.8°F12.7°C 49.1°F9.5°C 81% 3.6 mph WSW5.8 kmh WSW 9.9 mph15.9 kmh 30.29 in1025.7 mb 0.00 in0.0 mm 0.00 in0.0 mm 0.00 in0.0 mm
08:10 PM 54.6°F12.6°C 49.3°F9.6°C 82% 4.0 mph WSW6.4 kmh WSW 9.4 mph15.1 kmh 30.29 in1025.7 mb 0.00 in0.0 mm 0.00 in0.0 mm 0.00 in0.0 mm
08:15 PM 54.5°F12.5°C 49.2°F9.6°C 82% 3.6 mph WSW5.8 kmh WSW 9.4 mph15.1 kmh 30.30 in1026.1 mb 0.00 in0.0 mm 0.00 in0.0 mm 0.00 in0.0 mm
08:20 PM 54.5°F12.5°C 49.5°F9.7°C 83% 3.1 mph WSW5.0 kmh WSW 7.6 mph12.2 kmh 30.30 in1026.1 mb 0.00 in0.0 mm 0.00 in0.0 mm 0.00 in0.0 mm
08:25 PM 54.6°F12.6°C 49.3°F9.6°C 82% 2.7 mph SW4.3 kmh SW 8.5 mph13.7 kmh 30.30 in1026.1 mb 0.00 in0.0 mm 0.00 in0.0 mm 0.00 in0.0 mm
08:30 PM 54.6°F12.6°C 49.3°F9.6°C 82% 2.7 mph SW4.3 kmh SW 8.5 mph13.7 kmh 30.30 in1026.1 mb 0.00 in0.0 mm 0.00 in0.0 mm 0.00 in0.0 mm
08:35 PM 54.6°F12.6°C 49.3°F9.6°C 82% 3.1 mph WSW5.0 kmh WSW 7.2 mph11.6 kmh 30.30 in1026.1 mb 0.00 in0.0 mm 0.00 in0.0 mm 0.00 in0.0 mm
08:40 PM 54.6°F12.6°C 49.3°F9.6°C 82% 2.7 mph WSW4.3 kmh WSW 7.2 mph11.6 kmh 30.30 in1026.1 mb 0.00 in0.0 mm 0.00 in0.0 mm 0.00 in0.0 mm
08:45 PM 54.6°F12.6°C 49.3°F9.6°C 82% 2.7 mph SW4.3 kmh SW 13.9 mph22.4 kmh 30.31 in1026.4 mb 0.00 in0.0 mm 0.00 in0.0 mm 0.00 in0.0 mm
08:50 PM 54.6°F12.6°C 49.6°F9.8°C 83% 2.7 mph SW4.3 kmh SW 13.9 mph22.4 kmh 30.31 in1026.4 mb 0.00 in0.0 mm 0.00 in0.0 mm 0.00 in0.0 mm
08:55 PM 54.6°F12.6°C 49.6°F9.8°C 83% 2.7 mph SW4.3 kmh SW 5.8 mph9.3 kmh 30.31 in1026.4 mb 0.00 in0.0 mm 0.00 in0.0 mm 0.00 in0.0 mm
09:00 PM 54.6°F12.6°C 49.6°F9.8°C 83% 2.7 mph WSW4.3 kmh WSW 6.7 mph10.8 kmh 30.31 in1026.4 mb 0.00 in0.0 mm 0.00 in0.0 mm 0.00 in0.0 mm
09:05 PM 54.6°F12.6°C 49.6°F9.8°C 83% 2.7 mph WSW4.3 kmh WSW 6.7 mph10.8 kmh 30.31 in1026.4 mb 0.00 in0.0 mm 0.00 in0.0 mm 0.00 in0.0 mm
09:10 PM 54.5°F12.5°C 49.5°F9.7°C 83% 2.7 mph W4.3 kmh W 8.1 mph13.0 kmh 30.31 in1026.4 mb 0.00 in0.0 mm 0.00 in0.0 mm 0.00 in0.0 mm
09:15 PM 54.1°F12.3°C 49.4°F9.7°C 84% 2.2 mph W3.5 kmh W 8.1 mph13.0 kmh 30.31 in1026.4 mb 0.00 in0.0 mm 0.00 in0.0 mm 0.00 in0.0 mm
09:20 PM 53.9°F12.2°C 49.2°F9.6°C 84% 1.8 mph W2.9 kmh W 4.9 mph7.9 kmh 30.31 in1026.4 mb 0.00 in0.0 mm 0.00 in0.0 mm 0.00 in0.0 mm
09:25 PM 53.7°F12.1°C 49.3°F9.6°C 85% 2.7 mph W4.3 kmh W 5.4 mph8.7 kmh 30.31 in1026.4 mb 0.00 in0.0 mm 0.00 in0.0 mm 0.00 in0.0 mm
09:30 PM 53.6°F12.0°C 49.6°F9.8°C 86% 3.1 mph W5.0 kmh W 6.3 mph10.1 kmh 30.31 in1026.4 mb 0.00 in0.0 mm 0.00 in0.0 mm 0.00 in0.0 mm
09:35 PM 53.2°F11.8°C 49.2°F9.6°C 86% 3.1 mph W5.0 kmh W 6.3 mph10.1 kmh 30.31 in1026.4 mb 0.00 in0.0 mm 0.00 in0.0 mm 0.00 in0.0 mm
09:40 PM 53.0°F11.7°C 49.3°F9.6°C 87% 3.6 mph WNW5.8 kmh WNW 9.9 mph15.9 kmh 30.31 in1026.4 mb 0.00 in0.0 mm 0.00 in0.0 mm 0.00 in0.0 mm
09:45 PM 52.7°F11.5°C 49.0°F9.4°C 87% 3.1 mph W5.0 kmh W 9.9 mph15.9 kmh 30.30 in1026.1 mb 0.00 in0.0 mm 0.00 in0.0 mm 0.00 in0.0 mm
09:50 PM 52.5°F11.4°C 49.1°F9.5°C 88% 3.1 mph W5.0 kmh W 5.8 mph9.3 kmh 30.30 in1026.1 mb 0.00 in0.0 mm 0.00 in0.0 mm 0.00 in0.0 mm
09:55 PM 52.5°F11.4°C 49.1°F9.5°C 88% 2.7 mph W4.3 kmh W 6.3 mph10.1 kmh 30.31 in1026.4 mb 0.00 in0.0 mm 0.00 in0.0 mm 0.00 in0.0 mm
10:00 PM 52.1°F11.2°C 48.7°F9.3°C 88% 2.7 mph W4.3 kmh W 6.3 mph10.1 kmh 30.31 in1026.4 mb 0.00 in0.0 mm 0.00 in0.0 mm 0.00 in0.0 mm
10:05 PM 51.9°F11.1°C 48.5°F9.2°C 88% 2.7 mph W4.3 kmh W 7.2 mph11.6 kmh 30.31 in1026.4 mb 0.00 in0.0 mm 0.00 in0.0 mm 0.00 in0.0 mm
10:10 PM 51.9°F11.1°C 48.8°F9.3°C 89% 2.7 mph W4.3 kmh W 7.2 mph11.6 kmh 30.30 in1026.1 mb 0.00 in0.0 mm 0.00 in0.0 mm 0.00 in0.0 mm
10:15 PM 51.9°F11.1°C 48.8°F9.3°C 89% 2.7 mph W4.3 kmh W 5.8 mph9.3 kmh 30.31 in1026.4 mb 0.00 in0.0 mm 0.00 in0.0 mm 0.00 in0.0 mm
10:20 PM 51.8°F11.0°C 48.7°F9.3°C 89% 2.2 mph WSW3.5 kmh WSW 5.4 mph8.7 kmh 30.30 in1026.1 mb 0.00 in0.0 mm 0.00 in0.0 mm 0.00 in0.0 mm
10:25 PM 51.6°F10.9°C 48.5°F9.2°C 89% 2.2 mph WSW3.5 kmh WSW 5.4 mph8.7 kmh 30.30 in1026.1 mb 0.00 in0.0 mm 0.00 in0.0 mm 0.00 in0.0 mm
10:30 PM 51.4°F10.8°C 48.3°F9.1°C 89% 2.2 mph WSW3.5 kmh WSW 5.4 mph8.7 kmh 30.30 in1026.1 mb 0.00 in0.0 mm 0.00 in0.0 mm 0.00 in0.0 mm
10:35 PM 51.4°F10.8°C 48.3°F9.1°C 89% 2.7 mph W4.3 kmh W 5.4 mph8.7 kmh 30.30 in1026.1 mb 0.00 in0.0 mm 0.00 in0.0 mm 0.00 in0.0 mm
10:40 PM 51.0°F10.6°C 47.9°F8.8°C 89% 2.2 mph W3.5 kmh W 4.9 mph7.9 kmh 30.30 in1026.1 mb 0.00 in0.0 mm 0.00 in0.0 mm 0.00 in0.0 mm
10:45 PM 50.9°F10.5°C 47.8°F8.8°C 89% 2.2 mph W3.5 kmh W 4.5 mph7.2 kmh 30.31 in1026.4 mb 0.00 in0.0 mm 0.00 in0.0 mm 0.00 in0.0 mm
10:50 PM 50.7°F10.4°C 47.9°F8.8°C 90% 1.8 mph W2.9 kmh W 4.0 mph6.4 kmh 30.30 in1026.1 mb 0.00 in0.0 mm 0.00 in0.0 mm 0.00 in0.0 mm
10:55 PM 50.3°F10.2°C 47.5°F8.6°C 90% 1.3 mph W2.1 kmh W 3.1 mph5.0 kmh 30.30 in1026.1 mb 0.00 in0.0 mm 0.00 in0.0 mm 0.00 in0.0 mm
11:00 PM 50.1°F10.1°C 47.3°F8.5°C 90% 1.3 mph WSW2.1 kmh WSW 3.1 mph5.0 kmh 30.30 in1026.1 mb 0.00 in0.0 mm 0.00 in0.0 mm 0.00 in0.0 mm
11:05 PM 50.1°F10.1°C 47.3°F8.5°C 90% 1.3 mph SW2.1 kmh SW 2.7 mph4.3 kmh 30.30 in1026.1 mb 0.00 in0.0 mm 0.00 in0.0 mm 0.00 in0.0 mm
11:10 PM 50.1°F10.1°C 47.6°F8.7°C 91% 1.8 mph SW2.9 kmh SW 3.6 mph5.8 kmh 30.31 in1026.4 mb 0.00 in0.0 mm 0.00 in0.0 mm 0.00 in0.0 mm
11:15 PM 50.3°F10.2°C 47.8°F8.8°C 91% 2.2 mph SW3.5 kmh SW 3.6 mph5.8 kmh 30.31 in1026.4 mb 0.00 in0.0 mm 0.00 in0.0 mm 0.00 in0.0 mm
11:20 PM 50.5°F10.3°C 48.0°F8.9°C 91% 1.8 mph SW2.9 kmh SW 4.9 mph7.9 kmh 30.31 in1026.4 mb 0.00 in0.0 mm 0.00 in0.0 mm 0.00 in0.0 mm
11:25 PM 50.7°F10.4°C 48.2°F9.0°C 91% 1.8 mph SW2.9 kmh SW 5.8 mph9.3 kmh 30.31 in1026.4 mb 0.00 in0.0 mm 0.00 in0.0 mm 0.00 in0.0 mm
11:30 PM 50.9°F10.5°C 48.4°F9.1°C 91% 2.2 mph WSW3.5 kmh WSW 5.8 mph9.3 kmh 30.31 in1026.4 mb 0.00 in0.0 mm 0.00 in0.0 mm 0.00 in0.0 mm
11:35 PM 50.9°F10.5°C 48.4°F9.1°C 91% 1.8 mph WSW2.9 kmh WSW 4.9 mph7.9 kmh 30.31 in1026.4 mb 0.00 in0.0 mm 0.00 in0.0 mm 0.00 in0.0 mm
11:40 PM 51.0°F10.6°C 48.5°F9.2°C 91% 1.3 mph WSW2.1 kmh WSW 3.1 mph5.0 kmh 30.31 in1026.4 mb 0.00 in0.0 mm 0.00 in0.0 mm 0.00 in0.0 mm
11:45 PM 51.0°F10.6°C 48.5°F9.2°C 91% 1.8 mph WSW2.9 kmh WSW 5.4 mph8.7 kmh 30.30 in1026.1 mb 0.00 in0.0 mm 0.00 in0.0 mm 0.00 in0.0 mm
11:50 PM 51.2°F10.7°C 48.7°F9.3°C 91% 1.8 mph WSW2.9 kmh WSW 5.4 mph8.7 kmh 30.30 in1026.1 mb 0.00 in0.0 mm 0.00 in0.0 mm 0.00 in0.0 mm
11:55 PM 51.2°F10.7°C 48.7°F9.3°C 91% 1.8 mph WSW2.9 kmh WSW 4.0 mph6.4 kmh 30.30 in1026.1 mb 0.00 in0.0 mm 0.00 in0.0 mm 0.00 in0.0 mm